sensor_id;sensor_type;location;lat;lon;timestamp;P1;durP1;ratioP1;P2;durP2;ratioP2
75823;SDS011;64457;51.976;9.834;2023-08-01T00:00:53;5.20;;;1.20;;
75823;SDS011;64457;51.976;9.834;2023-08-01T00:03:21;6.03;;;1.50;;
75823;SDS011;64457;51.976;9.834;2023-08-01T00:05:53;4.80;;;1.23;;
75823;SDS011;64457;51.976;9.834;2023-08-01T00:08:26;6.27;;;1.23;;
75823;SDS011;64457;51.976;9.834;2023-08-01T00:10:53;7.97;;;1.70;;
75823;SDS011;64457;51.976;9.834;2023-08-01T00:13:21;5.73;;;1.20;;
75823;SDS011;64457;51.976;9.834;2023-08-01T00:15:49;6.83;;;1.23;;
75823;SDS011;64457;51.976;9.834;2023-08-01T00:18:17;5.43;;;1.23;;
75823;SDS011;64457;51.976;9.834;2023-08-01T00:20:45;5.47;;;1.20;;
75823;SDS011;64457;51.976;9.834;2023-08-01T00:23:14;5.20;;;1.37;;
75823;SDS011;64457;51.976;9.834;2023-08-01T00:25:41;5.40;;;1.23;;
75823;SDS011;64457;51.976;9.834;2023-08-01T00:28:09;5.83;;;1.40;;
75823;SDS011;64457;51.976;9.834;2023-08-01T00:30:38;5.93;;;1.10;;
75823;SDS011;64457;51.976;9.834;2023-08-01T00:33:07;5.17;;;1.57;;
75823;SDS011;64457;51.976;9.834;2023-08-01T00:35:34;6.10;;;1.23;;
75823;SDS011;64457;51.976;9.834;2023-08-01T00:38:02;6.10;;;1.30;;
75823;SDS011;64457;51.976;9.834;2023-08-01T00:40:31;6.23;;;1.10;;
75823;SDS011;64457;51.976;9.834;2023-08-01T00:42:59;6.70;;;1.30;;
75823;SDS011;64457;51.976;9.834;2023-08-01T00:45:28;8.03;;;1.50;;
75823;SDS011;64457;51.976;9.834;2023-08-01T00:47:57;6.20;;;1.40;;
75823;SDS011;64457;51.976;9.834;2023-08-01T00:50:26;4.80;;;1.10;;
75823;SDS011;64457;51.976;9.834;2023-08-01T00:52:54;5.33;;;1.10;;
75823;SDS011;64457;51.976;9.834;2023-08-01T00:55:22;5.67;;;1.20;;
75823;SDS011;64457;51.976;9.834;2023-08-01T00:57:52;5.07;;;1.20;;
75823;SDS011;64457;51.976;9.834;2023-08-01T01:00:20;5.17;;;1.30;;
75823;SDS011;64457;51.976;9.834;2023-08-01T01:02:47;5.17;;;1.37;;
75823;SDS011;64457;51.976;9.834;2023-08-01T01:05:15;5.00;;;1.10;;
75823;SDS011;64457;51.976;9.834;2023-08-01T01:07:43;4.90;;;1.13;;
75823;SDS011;64457;51.976;9.834;2023-08-01T01:10:11;5.37;;;1.30;;
75823;SDS011;64457;51.976;9.834;2023-08-01T01:12:39;5.03;;;1.37;;
75823;SDS011;64457;51.976;9.834;2023-08-01T01:15:09;6.83;;;1.03;;
75823;SDS011;64457;51.976;9.834;2023-08-01T01:17:37;6.50;;;1.20;;
75823;SDS011;64457;51.976;9.834;2023-08-01T01:20:05;6.00;;;1.40;;
75823;SDS011;64457;51.976;9.834;2023-08-01T01:22:36;4.80;;;0.97;;
75823;SDS011;64457;51.976;9.834;2023-08-01T01:25:04;4.63;;;0.90;;
75823;SDS011;64457;51.976;9.834;2023-08-01T01:27:35;5.00;;;1.30;;
75823;SDS011;64457;51.976;9.834;2023-08-01T01:30:05;7.53;;;1.33;;
75823;SDS011;64457;51.976;9.834;2023-08-01T01:32:34;6.57;;;1.50;;
75823;SDS011;64457;51.976;9.834;2023-08-01T01:35:03;6.23;;;1.67;;
75823;SDS011;64457;51.976;9.834;2023-08-01T01:37:32;6.63;;;1.73;;
75823;SDS011;64457;51.976;9.834;2023-08-01T01:40:02;5.60;;;1.73;;
75823;SDS011;64457;51.976;9.834;2023-08-01T01:42:31;6.27;;;1.80;;
75823;SDS011;64457;51.976;9.834;2023-08-01T01:44:59;5.93;;;1.70;;
75823;SDS011;64457;51.976;9.834;2023-08-01T01:47:26;6.47;;;1.73;;
75823;SDS011;64457;51.976;9.834;2023-08-01T01:49:54;5.50;;;1.40;;
75823;SDS011;64457;51.976;9.834;2023-08-01T01:52:21;6.67;;;1.80;;
75823;SDS011;64457;51.976;9.834;2023-08-01T01:54:49;5.90;;;1.57;;
75823;SDS011;64457;51.976;9.834;2023-08-01T01:57:18;5.30;;;1.40;;
75823;SDS011;64457;51.976;9.834;2023-08-01T01:59:46;5.53;;;1.50;;
75823;SDS011;64457;51.976;9.834;2023-08-01T02:02:15;6.40;;;1.70;;
75823;SDS011;64457;51.976;9.834;2023-08-01T02:04:42;6.73;;;2.03;;
75823;SDS011;64457;51.976;9.834;2023-08-01T02:07:13;7.17;;;1.73;;
75823;SDS011;64457;51.976;9.834;2023-08-01T02:09:40;6.93;;;2.20;;
75823;SDS011;64457;51.976;9.834;2023-08-01T02:12:08;9.10;;;1.50;;
75823;SDS011;64457;51.976;9.834;2023-08-01T02:14:40;8.20;;;1.80;;
75823;SDS011;64457;51.976;9.834;2023-08-01T02:17:08;4.90;;;1.50;;
75823;SDS011;64457;51.976;9.834;2023-08-01T02:19:36;6.23;;;1.57;;
75823;SDS011;64457;51.976;9.834;2023-08-01T02:22:04;6.10;;;1.53;;
75823;SDS011;64457;51.976;9.834;2023-08-01T02:24:32;6.50;;;1.57;;
75823;SDS011;64457;51.976;9.834;2023-08-01T02:26:59;6.10;;;1.67;;
75823;SDS011;64457;51.976;9.834;2023-08-01T02:29:27;7.10;;;1.40;;
75823;SDS011;64457;51.976;9.834;2023-08-01T02:31:56;5.67;;;1.60;;
75823;SDS011;64457;51.976;9.834;2023-08-01T02:34:23;8.37;;;1.63;;
75823;SDS011;64457;51.976;9.834;2023-08-01T02:36:51;5.30;;;1.60;;
75823;SDS011;64457;51.976;9.834;2023-08-01T02:39:19;6.13;;;1.50;;
75823;SDS011;64457;51.976;9.834;2023-08-01T02:41:46;5.87;;;1.43;;
75823;SDS011;64457;51.976;9.834;2023-08-01T02:44:14;4.90;;;1.33;;
75823;SDS011;64457;51.976;9.834;2023-08-01T02:46:42;5.50;;;1.67;;
75823;SDS011;64457;51.976;9.834;2023-08-01T02:49:11;6.67;;;1.50;;
75823;SDS011;64457;51.976;9.834;2023-08-01T02:51:39;9.13;;;1.40;;
75823;SDS011;64457;51.976;9.834;2023-08-01T02:54:07;6.10;;;1.37;;
75823;SDS011;64457;51.976;9.834;2023-08-01T02:56:35;7.63;;;1.20;;
75823;SDS011;64457;51.976;9.834;2023-08-01T02:59:06;4.87;;;1.10;;
75823;SDS011;64457;51.976;9.834;2023-08-01T03:01:34;5.47;;;1.30;;
75823;SDS011;64457;51.976;9.834;2023-08-01T03:04:03;5.20;;;1.20;;
75823;SDS011;64457;51.976;9.834;2023-08-01T03:06:33;5.77;;;1.17;;
75823;SDS011;64457;51.976;9.834;2023-08-01T03:09:00;4.87;;;1.20;;
75823;SDS011;64457;51.976;9.834;2023-08-01T03:11:28;6.13;;;1.40;;
75823;SDS011;64457;51.976;9.834;2023-08-01T03:13:56;7.87;;;1.20;;
75823;SDS011;64457;51.976;9.834;2023-08-01T03:16:23;4.77;;;1.03;;
75823;SDS011;64457;51.976;9.834;2023-08-01T03:18:52;4.70;;;0.90;;
75823;SDS011;64457;51.976;9.834;2023-08-01T03:21:19;4.57;;;1.13;;
75823;SDS011;64457;51.976;9.834;2023-08-01T03:23:49;6.70;;;1.30;;
75823;SDS011;64457;51.976;9.834;2023-08-01T03:26:17;5.63;;;1.37;;
75823;SDS011;64457;51.976;9.834;2023-08-01T03:28:47;6.60;;;1.30;;
75823;SDS011;64457;51.976;9.834;2023-08-01T03:31:15;5.97;;;1.40;;
75823;SDS011;64457;51.976;9.834;2023-08-01T03:33:43;5.77;;;1.30;;
75823;SDS011;64457;51.976;9.834;2023-08-01T03:36:10;4.80;;;1.20;;
75823;SDS011;64457;51.976;9.834;2023-08-01T03:38:38;5.70;;;1.20;;
75823;SDS011;64457;51.976;9.834;2023-08-01T03:41:07;5.77;;;1.17;;
75823;SDS011;64457;51.976;9.834;2023-08-01T03:43:35;5.53;;;1.43;;
75823;SDS011;64457;51.976;9.834;2023-08-01T03:46:03;5.90;;;1.50;;
75823;SDS011;64457;51.976;9.834;2023-08-01T03:48:30;7.13;;;1.37;;
75823;SDS011;64457;51.976;9.834;2023-08-01T03:50:58;5.30;;;1.07;;
75823;SDS011;64457;51.976;9.834;2023-08-01T03:53:25;6.80;;;1.30;;
75823;SDS011;64457;51.976;9.834;2023-08-01T03:55:53;5.17;;;1.20;;
75823;SDS011;64457;51.976;9.834;2023-08-01T03:58:22;7.10;;;1.30;;
75823;SDS011;64457;51.976;9.834;2023-08-01T04:00:50;5.50;;;1.47;;
75823;SDS011;64457;51.976;9.834;2023-08-01T04:03:18;10.00;;;1.80;;
75823;SDS011;64457;51.976;9.834;2023-08-01T04:05:47;4.87;;;1.13;;
75823;SDS011;64457;51.976;9.834;2023-08-01T04:08:14;6.10;;;1.50;;
75823;SDS011;64457;51.976;9.834;2023-08-01T04:10:42;4.97;;;1.17;;
75823;SDS011;64457;51.976;9.834;2023-08-01T04:13:10;4.40;;;0.70;;
75823;SDS011;64457;51.976;9.834;2023-08-01T04:15:40;5.57;;;0.80;;
75823;SDS011;64457;51.976;9.834;2023-08-01T04:18:08;4.40;;;0.80;;
75823;SDS011;64457;51.976;9.834;2023-08-01T04:20:35;5.90;;;0.70;;
75823;SDS011;64457;51.976;9.834;2023-08-01T04:23:03;4.80;;;0.97;;
75823;SDS011;64457;51.976;9.834;2023-08-01T04:25:30;4.40;;;1.00;;
75823;SDS011;64457;51.976;9.834;2023-08-01T04:27:58;5.10;;;1.00;;
75823;SDS011;64457;51.976;9.834;2023-08-01T04:30:25;5.17;;;1.27;;
75823;SDS011;64457;51.976;9.834;2023-08-01T04:32:54;5.23;;;1.07;;
75823;SDS011;64457;51.976;9.834;2023-08-01T04:35:23;6.80;;;1.17;;
75823;SDS011;64457;51.976;9.834;2023-08-01T04:37:51;5.27;;;0.90;;
75823;SDS011;64457;51.976;9.834;2023-08-01T04:40:18;5.17;;;1.20;;
75823;SDS011;64457;51.976;9.834;2023-08-01T04:42:45;4.70;;;1.00;;
75823;SDS011;64457;51.976;9.834;2023-08-01T04:45:13;4.17;;;0.70;;
75823;SDS011;64457;51.976;9.834;2023-08-01T04:47:41;4.90;;;0.73;;
75823;SDS011;64457;51.976;9.834;2023-08-01T04:50:11;4.70;;;0.80;;
75823;SDS011;64457;51.976;9.834;2023-08-01T04:52:40;4.33;;;0.70;;
75823;SDS011;64457;51.976;9.834;2023-08-01T04:55:08;3.87;;;0.60;;
75823;SDS011;64457;51.976;9.834;2023-08-01T04:57:36;3.90;;;0.70;;
75823;SDS011;64457;51.976;9.834;2023-08-01T05:00:03;5.37;;;0.60;;
75823;SDS011;64457;51.976;9.834;2023-08-01T05:02:32;3.90;;;0.60;;
75823;SDS011;64457;51.976;9.834;2023-08-01T05:05:01;3.70;;;0.60;;
75823;SDS011;64457;51.976;9.834;2023-08-01T05:07:31;5.67;;;0.53;;
75823;SDS011;64457;51.976;9.834;2023-08-01T05:09:58;3.87;;;0.60;;
75823;SDS011;64457;51.976;9.834;2023-08-01T05:12:26;4.40;;;0.70;;
75823;SDS011;64457;51.976;9.834;2023-08-01T05:14:53;4.90;;;0.60;;
75823;SDS011;64457;51.976;9.834;2023-08-01T05:17:21;3.60;;;0.50;;
75823;SDS011;64457;51.976;9.834;2023-08-01T05:19:49;4.30;;;0.70;;
75823;SDS011;64457;51.976;9.834;2023-08-01T05:22:17;4.30;;;0.67;;
75823;SDS011;64457;51.976;9.834;2023-08-01T05:24:46;5.03;;;0.70;;
75823;SDS011;64457;51.976;9.834;2023-08-01T05:27:13;3.63;;;0.60;;
75823;SDS011;64457;51.976;9.834;2023-08-01T05:29:41;5.23;;;0.70;;
75823;SDS011;64457;51.976;9.834;2023-08-01T05:32:09;4.00;;;0.70;;
75823;SDS011;64457;51.976;9.834;2023-08-01T05:34:36;4.90;;;0.80;;
75823;SDS011;64457;51.976;9.834;2023-08-01T05:37:04;6.03;;;1.10;;
75823;SDS011;64457;51.976;9.834;2023-08-01T05:39:32;6.40;;;1.30;;
75823;SDS011;64457;51.976;9.834;2023-08-01T05:42:02;4.03;;;0.77;;
75823;SDS011;64457;51.976;9.834;2023-08-01T05:44:34;4.73;;;0.87;;
75823;SDS011;64457;51.976;9.834;2023-08-01T05:47:02;4.50;;;0.80;;
75823;SDS011;64457;51.976;9.834;2023-08-01T05:49:30;4.90;;;0.80;;
75823;SDS011;64457;51.976;9.834;2023-08-01T05:51:58;4.30;;;0.80;;
75823;SDS011;64457;51.976;9.834;2023-08-01T05:54:25;6.27;;;0.90;;
75823;SDS011;64457;51.976;9.834;2023-08-01T05:56:53;6.80;;;0.80;;
75823;SDS011;64457;51.976;9.834;2023-08-01T05:59:24;4.50;;;0.90;;
75823;SDS011;64457;51.976;9.834;2023-08-01T06:01:52;4.47;;;0.70;;
75823;SDS011;64457;51.976;9.834;2023-08-01T06:04:19;4.73;;;0.70;;
75823;SDS011;64457;51.976;9.834;2023-08-01T06:06:47;4.50;;;0.83;;
75823;SDS011;64457;51.976;9.834;2023-08-01T06:09:14;4.30;;;0.80;;
75823;SDS011;64457;51.976;9.834;2023-08-01T06:11:42;4.30;;;0.70;;
75823;SDS011;64457;51.976;9.834;2023-08-01T06:14:11;4.63;;;0.80;;
75823;SDS011;64457;51.976;9.834;2023-08-01T06:16:40;4.60;;;0.80;;
75823;SDS011;64457;51.976;9.834;2023-08-01T06:19:07;3.83;;;0.70;;
75823;SDS011;64457;51.976;9.834;2023-08-01T06:21:35;4.60;;;1.03;;
75823;SDS011;64457;51.976;9.834;2023-08-01T06:24:04;4.60;;;0.90;;
75823;SDS011;64457;51.976;9.834;2023-08-01T06:26:34;4.60;;;1.10;;
75823;SDS011;64457;51.976;9.834;2023-08-01T06:29:03;4.10;;;0.80;;
75823;SDS011;64457;51.976;9.834;2023-08-01T06:31:30;5.30;;;1.20;;
75823;SDS011;64457;51.976;9.834;2023-08-01T06:34:00;5.13;;;1.27;;
75823;SDS011;64457;51.976;9.834;2023-08-01T06:36:28;4.90;;;0.97;;
75823;SDS011;64457;51.976;9.834;2023-08-01T06:38:57;6.73;;;1.40;;
75823;SDS011;64457;51.976;9.834;2023-08-01T06:41:25;5.17;;;1.30;;
75823;SDS011;64457;51.976;9.834;2023-08-01T06:43:52;4.70;;;1.10;;
75823;SDS011;64457;51.976;9.834;2023-08-01T06:46:20;5.57;;;1.40;;
75823;SDS011;64457;51.976;9.834;2023-08-01T06:48:48;5.37;;;1.40;;
75823;SDS011;64457;51.976;9.834;2023-08-01T06:51:17;5.10;;;1.30;;
75823;SDS011;64457;51.976;9.834;2023-08-01T06:53:45;5.20;;;1.40;;
75823;SDS011;64457;51.976;9.834;2023-08-01T06:56:12;6.73;;;1.73;;
75823;SDS011;64457;51.976;9.834;2023-08-01T06:58:40;5.83;;;1.50;;
75823;SDS011;64457;51.976;9.834;2023-08-01T07:01:08;5.70;;;1.23;;
75823;SDS011;64457;51.976;9.834;2023-08-01T07:03:36;4.90;;;1.43;;
75823;SDS011;64457;51.976;9.834;2023-08-01T07:06:03;5.20;;;1.60;;
75823;SDS011;64457;51.976;9.834;2023-08-01T07:08:32;5.30;;;1.70;;
75823;SDS011;64457;51.976;9.834;2023-08-01T07:11:00;5.63;;;1.60;;
75823;SDS011;64457;51.976;9.834;2023-08-01T07:13:27;7.67;;;1.90;;
75823;SDS011;64457;51.976;9.834;2023-08-01T07:15:55;7.57;;;2.30;;
75823;SDS011;64457;51.976;9.834;2023-08-01T07:18:23;8.47;;;2.60;;
75823;SDS011;64457;51.976;9.834;2023-08-01T07:20:58;9.17;;;2.80;;
75823;SDS011;64457;51.976;9.834;2023-08-01T07:23:26;9.13;;;2.70;;
75823;SDS011;64457;51.976;9.834;2023-08-01T07:25:56;7.27;;;2.30;;
75823;SDS011;64457;51.976;9.834;2023-08-01T07:28:24;7.00;;;2.60;;
75823;SDS011;64457;51.976;9.834;2023-08-01T07:30:57;9.20;;;2.87;;
75823;SDS011;64457;51.976;9.834;2023-08-01T07:33:26;7.30;;;2.43;;
75823;SDS011;64457;51.976;9.834;2023-08-01T07:35:54;11.87;;;3.10;;
75823;SDS011;64457;51.976;9.834;2023-08-01T07:38:22;7.90;;;2.60;;
75823;SDS011;64457;51.976;9.834;2023-08-01T07:40:52;12.70;;;2.93;;
75823;SDS011;64457;51.976;9.834;2023-08-01T07:43:22;9.17;;;2.57;;
75823;SDS011;64457;51.976;9.834;2023-08-01T07:45:55;9.40;;;2.57;;
75823;SDS011;64457;51.976;9.834;2023-08-01T07:48:23;12.43;;;3.10;;
75823;SDS011;64457;51.976;9.834;2023-08-01T07:50:50;6.87;;;2.20;;
75823;SDS011;64457;51.976;9.834;2023-08-01T07:53:18;10.03;;;3.00;;
75823;SDS011;64457;51.976;9.834;2023-08-01T07:55:45;7.47;;;2.70;;
75823;SDS011;64457;51.976;9.834;2023-08-01T07:58:13;8.43;;;2.70;;
75823;SDS011;64457;51.976;9.834;2023-08-01T08:00:45;12.17;;;3.20;;
75823;SDS011;64457;51.976;9.834;2023-08-01T08:03:13;8.57;;;2.80;;
75823;SDS011;64457;51.976;9.834;2023-08-01T08:05:40;7.10;;;2.60;;
75823;SDS011;64457;51.976;9.834;2023-08-01T08:08:08;8.60;;;2.53;;
75823;SDS011;64457;51.976;9.834;2023-08-01T08:10:36;8.63;;;2.83;;
75823;SDS011;64457;51.976;9.834;2023-08-01T08:13:03;9.10;;;3.33;;
75823;SDS011;64457;51.976;9.834;2023-08-01T08:15:31;10.30;;;3.33;;
75823;SDS011;64457;51.976;9.834;2023-08-01T08:18:02;9.03;;;2.93;;
75823;SDS011;64457;51.976;9.834;2023-08-01T08:20:30;10.10;;;2.93;;
75823;SDS011;64457;51.976;9.834;2023-08-01T08:23:00;10.50;;;2.60;;
75823;SDS011;64457;51.976;9.834;2023-08-01T08:25:28;8.13;;;2.60;;
75823;SDS011;64457;51.976;9.834;2023-08-01T08:27:55;7.73;;;2.77;;
75823;SDS011;64457;51.976;9.834;2023-08-01T08:30:23;12.70;;;2.63;;
75823;SDS011;64457;51.976;9.834;2023-08-01T08:32:52;7.47;;;2.40;;
75823;SDS011;64457;51.976;9.834;2023-08-01T08:35:22;8.10;;;2.50;;
75823;SDS011;64457;51.976;9.834;2023-08-01T08:37:50;9.80;;;2.43;;
75823;SDS011;64457;51.976;9.834;2023-08-01T08:40:17;8.17;;;2.60;;
75823;SDS011;64457;51.976;9.834;2023-08-01T08:42:45;10.67;;;2.83;;
75823;SDS011;64457;51.976;9.834;2023-08-01T08:45:14;8.30;;;2.77;;
75823;SDS011;64457;51.976;9.834;2023-08-01T08:47:47;8.93;;;2.50;;
75823;SDS011;64457;51.976;9.834;2023-08-01T08:50:20;11.77;;;2.50;;
75823;SDS011;64457;51.976;9.834;2023-08-01T08:52:50;11.13;;;2.63;;
75823;SDS011;64457;51.976;9.834;2023-08-01T08:55:20;9.50;;;2.80;;
75823;SDS011;64457;51.976;9.834;2023-08-01T08:57:49;8.23;;;2.37;;
75823;SDS011;64457;51.976;9.834;2023-08-01T09:00:17;10.50;;;3.30;;
75823;SDS011;64457;51.976;9.834;2023-08-01T09:02:46;8.13;;;2.90;;
75823;SDS011;64457;51.976;9.834;2023-08-01T09:05:14;8.90;;;3.20;;
75823;SDS011;64457;51.976;9.834;2023-08-01T09:07:45;8.30;;;2.90;;
75823;SDS011;64457;51.976;9.834;2023-08-01T09:10:17;8.93;;;3.00;;
75823;SDS011;64457;51.976;9.834;2023-08-01T09:12:45;7.20;;;2.73;;
75823;SDS011;64457;51.976;9.834;2023-08-01T09:15:12;9.80;;;3.03;;
75823;SDS011;64457;51.976;9.834;2023-08-01T09:17:48;7.80;;;2.67;;
75823;SDS011;64457;51.976;9.834;2023-08-01T09:20:18;6.57;;;2.60;;
75823;SDS011;64457;51.976;9.834;2023-08-01T09:22:47;8.30;;;2.47;;
75823;SDS011;64457;51.976;9.834;2023-08-01T09:25:15;7.00;;;2.20;;
75823;SDS011;64457;51.976;9.834;2023-08-01T09:27:43;8.97;;;2.40;;
75823;SDS011;64457;51.976;9.834;2023-08-01T09:30:12;9.27;;;2.50;;
75823;SDS011;64457;51.976;9.834;2023-08-01T09:32:50;7.40;;;2.40;;
75823;SDS011;64457;51.976;9.834;2023-08-01T09:35:19;7.17;;;2.20;;
75823;SDS011;64457;51.976;9.834;2023-08-01T09:37:48;12.70;;;2.30;;
75823;SDS011;64457;51.976;9.834;2023-08-01T09:40:16;7.03;;;2.23;;
75823;SDS011;64457;51.976;9.834;2023-08-01T09:42:45;7.60;;;2.17;;
75823;SDS011;64457;51.976;9.834;2023-08-01T09:45:13;6.27;;;1.87;;
75823;SDS011;64457;51.976;9.834;2023-08-01T09:47:41;6.70;;;2.30;;
75823;SDS011;64457;51.976;9.834;2023-08-01T09:50:10;6.37;;;1.80;;
75823;SDS011;64457;51.976;9.834;2023-08-01T09:52:40;5.77;;;1.63;;
75823;SDS011;64457;51.976;9.834;2023-08-01T09:55:10;6.07;;;2.10;;
75823;SDS011;64457;51.976;9.834;2023-08-01T09:57:37;5.87;;;1.80;;
75823;SDS011;64457;51.976;9.834;2023-08-01T10:00:08;6.87;;;2.10;;
75823;SDS011;64457;51.976;9.834;2023-08-01T10:02:37;7.33;;;2.40;;
75823;SDS011;64457;51.976;9.834;2023-08-01T10:05:05;8.07;;;2.33;;
75823;SDS011;64457;51.976;9.834;2023-08-01T10:07:34;5.83;;;2.30;;
75823;SDS011;64457;51.976;9.834;2023-08-01T10:10:05;8.00;;;2.40;;
75823;SDS011;64457;51.976;9.834;2023-08-01T10:12:36;6.17;;;2.10;;
75823;SDS011;64457;51.976;9.834;2023-08-01T10:15:04;6.60;;;2.33;;
75823;SDS011;64457;51.976;9.834;2023-08-01T10:17:34;7.60;;;2.40;;
75823;SDS011;64457;51.976;9.834;2023-08-01T10:20:03;6.83;;;2.10;;
75823;SDS011;64457;51.976;9.834;2023-08-01T10:22:32;7.20;;;2.23;;
75823;SDS011;64457;51.976;9.834;2023-08-01T10:25:01;5.97;;;2.03;;
75823;SDS011;64457;51.976;9.834;2023-08-01T10:27:30;6.00;;;2.00;;
75823;SDS011;64457;51.976;9.834;2023-08-01T10:30:00;5.70;;;2.13;;
75823;SDS011;64457;51.976;9.834;2023-08-01T10:32:31;7.67;;;2.70;;
75823;SDS011;64457;51.976;9.834;2023-08-01T10:35:01;8.23;;;2.90;;
75823;SDS011;64457;51.976;9.834;2023-08-01T10:37:38;8.20;;;2.80;;
75823;SDS011;64457;51.976;9.834;2023-08-01T10:40:08;7.00;;;2.80;;
75823;SDS011;64457;51.976;9.834;2023-08-01T10:42:39;6.10;;;2.10;;
75823;SDS011;64457;51.976;9.834;2023-08-01T10:45:20;6.47;;;2.50;;
75823;SDS011;64457;51.976;9.834;2023-08-01T10:47:49;6.77;;;2.93;;
75823;SDS011;64457;51.976;9.834;2023-08-01T10:50:18;5.67;;;2.10;;
75823;SDS011;64457;51.976;9.834;2023-08-01T10:52:46;6.70;;;2.70;;
75823;SDS011;64457;51.976;9.834;2023-08-01T10:55:14;6.87;;;2.30;;
75823;SDS011;64457;51.976;9.834;2023-08-01T10:57:46;8.00;;;3.07;;
75823;SDS011;64457;51.976;9.834;2023-08-01T11:00:16;7.30;;;2.47;;
75823;SDS011;64457;51.976;9.834;2023-08-01T11:02:50;9.73;;;3.13;;
75823;SDS011;64457;51.976;9.834;2023-08-01T11:05:17;7.20;;;3.30;;
75823;SDS011;64457;51.976;9.834;2023-08-01T11:07:55;10.00;;;3.57;;
75823;SDS011;64457;51.976;9.834;2023-08-01T11:10:25;8.60;;;3.37;;
75823;SDS011;64457;51.976;9.834;2023-08-01T11:12:54;8.60;;;3.17;;
75823;SDS011;64457;51.976;9.834;2023-08-01T11:15:22;8.17;;;4.07;;
75823;SDS011;64457;51.976;9.834;2023-08-01T11:17:52;8.03;;;3.20;;
75823;SDS011;64457;51.976;9.834;2023-08-01T11:20:22;9.03;;;3.50;;
75823;SDS011;64457;51.976;9.834;2023-08-01T11:22:53;9.40;;;3.60;;
75823;SDS011;64457;51.976;9.834;2023-08-01T11:25:32;9.13;;;3.80;;
75823;SDS011;64457;51.976;9.834;2023-08-01T11:28:03;7.70;;;3.50;;
75823;SDS011;64457;51.976;9.834;2023-08-01T11:30:33;8.10;;;3.20;;
75823;SDS011;64457;51.976;9.834;2023-08-01T11:33:12;7.37;;;3.00;;
75823;SDS011;64457;51.976;9.834;2023-08-01T11:35:41;6.87;;;3.10;;
75823;SDS011;64457;51.976;9.834;2023-08-01T11:38:09;9.50;;;3.60;;
75823;SDS011;64457;51.976;9.834;2023-08-01T11:40:37;7.37;;;3.40;;
75823;SDS011;64457;51.976;9.834;2023-08-01T11:43:05;8.60;;;3.67;;
75823;SDS011;64457;51.976;9.834;2023-08-01T11:45:33;11.03;;;4.10;;
75823;SDS011;64457;51.976;9.834;2023-08-01T11:48:03;8.53;;;3.63;;
75823;SDS011;64457;51.976;9.834;2023-08-01T11:50:31;9.50;;;4.10;;
75823;SDS011;64457;51.976;9.834;2023-08-01T11:52:59;15.20;;;4.60;;
75823;SDS011;64457;51.976;9.834;2023-08-01T11:55:27;12.10;;;4.50;;
75823;SDS011;64457;51.976;9.834;2023-08-01T11:57:55;9.20;;;4.30;;
75823;SDS011;64457;51.976;9.834;2023-08-01T12:00:24;9.30;;;4.20;;
75823;SDS011;64457;51.976;9.834;2023-08-01T12:03:05;11.07;;;4.27;;
75823;SDS011;64457;51.976;9.834;2023-08-01T12:05:37;11.87;;;4.90;;
75823;SDS011;64457;51.976;9.834;2023-08-01T12:08:11;9.30;;;4.37;;
75823;SDS011;64457;51.976;9.834;2023-08-01T12:10:42;7.93;;;4.50;;
75823;SDS011;64457;51.976;9.834;2023-08-01T12:13:21;11.20;;;4.87;;
75823;SDS011;64457;51.976;9.834;2023-08-01T12:15:51;11.47;;;4.73;;
75823;SDS011;64457;51.976;9.834;2023-08-01T12:18:23;10.50;;;5.40;;
75823;SDS011;64457;51.976;9.834;2023-08-01T12:20:53;17.63;;;5.60;;
75823;SDS011;64457;51.976;9.834;2023-08-01T12:23:21;10.97;;;5.23;;
75823;SDS011;64457;51.976;9.834;2023-08-01T12:25:49;12.60;;;6.13;;
75823;SDS011;64457;51.976;9.834;2023-08-01T12:28:17;10.77;;;6.13;;
75823;SDS011;64457;51.976;9.834;2023-08-01T12:30:45;12.10;;;5.97;;
75823;SDS011;64457;51.976;9.834;2023-08-01T12:33:13;12.10;;;6.00;;
75823;SDS011;64457;51.976;9.834;2023-08-01T12:35:43;15.03;;;5.80;;
75823;SDS011;64457;51.976;9.834;2023-08-01T12:38:10;14.93;;;5.80;;
75823;SDS011;64457;51.976;9.834;2023-08-01T12:40:39;10.80;;;5.33;;
75823;SDS011;64457;51.976;9.834;2023-08-01T12:43:06;16.87;;;6.27;;
75823;SDS011;64457;51.976;9.834;2023-08-01T12:45:34;13.37;;;5.53;;
75823;SDS011;64457;51.976;9.834;2023-08-01T12:48:01;15.40;;;6.40;;
75823;SDS011;64457;51.976;9.834;2023-08-01T12:50:29;17.23;;;6.10;;
75823;SDS011;64457;51.976;9.834;2023-08-01T12:52:58;11.47;;;5.37;;
75823;SDS011;64457;51.976;9.834;2023-08-01T12:55:26;10.80;;;4.60;;
75823;SDS011;64457;51.976;9.834;2023-08-01T12:57:53;9.90;;;4.30;;
75823;SDS011;64457;51.976;9.834;2023-08-01T13:00:21;8.53;;;3.83;;
75823;SDS011;64457;51.976;9.834;2023-08-01T13:02:49;8.37;;;3.73;;
75823;SDS011;64457;51.976;9.834;2023-08-01T13:05:16;10.80;;;3.67;;
75823;SDS011;64457;51.976;9.834;2023-08-01T13:07:44;8.70;;;3.70;;
75823;SDS011;64457;51.976;9.834;2023-08-01T13:10:14;12.30;;;3.93;;
75823;SDS011;64457;51.976;9.834;2023-08-01T13:12:42;13.63;;;4.13;;
75823;SDS011;64457;51.976;9.834;2023-08-01T13:15:10;8.13;;;3.83;;
75823;SDS011;64457;51.976;9.834;2023-08-01T13:17:39;8.20;;;3.33;;
75823;SDS011;64457;51.976;9.834;2023-08-01T13:20:07;7.40;;;3.03;;
75823;SDS011;64457;51.976;9.834;2023-08-01T13:22:35;10.30;;;3.90;;
75823;SDS011;64457;51.976;9.834;2023-08-01T13:25:03;9.57;;;3.50;;
75823;SDS011;64457;51.976;9.834;2023-08-01T13:27:34;9.60;;;3.60;;
75823;SDS011;64457;51.976;9.834;2023-08-01T13:30:03;7.73;;;3.27;;
75823;SDS011;64457;51.976;9.834;2023-08-01T13:32:33;9.40;;;3.40;;
75823;SDS011;64457;51.976;9.834;2023-08-01T13:35:02;9.07;;;3.53;;
75823;SDS011;64457;51.976;9.834;2023-08-01T13:37:31;8.83;;;3.30;;
75823;SDS011;64457;51.976;9.834;2023-08-01T13:40:01;12.67;;;3.40;;
75823;SDS011;64457;51.976;9.834;2023-08-01T13:42:29;9.00;;;3.27;;
75823;SDS011;64457;51.976;9.834;2023-08-01T13:44:59;8.10;;;3.50;;
75823;SDS011;64457;51.976;9.834;2023-08-01T13:47:27;10.87;;;3.43;;
75823;SDS011;64457;51.976;9.834;2023-08-01T13:49:55;9.53;;;3.53;;
75823;SDS011;64457;51.976;9.834;2023-08-01T13:52:22;9.27;;;3.20;;
75823;SDS011;64457;51.976;9.834;2023-08-01T13:54:50;10.87;;;3.20;;
75823;SDS011;64457;51.976;9.834;2023-08-01T13:57:18;10.20;;;3.30;;
75823;SDS011;64457;51.976;9.834;2023-08-01T13:59:49;13.83;;;3.00;;
75823;SDS011;64457;51.976;9.834;2023-08-01T14:02:18;8.40;;;3.40;;
75823;SDS011;64457;51.976;9.834;2023-08-01T14:04:46;11.17;;;3.40;;
75823;SDS011;64457;51.976;9.834;2023-08-01T14:07:15;8.43;;;3.60;;
75823;SDS011;64457;51.976;9.834;2023-08-01T14:09:42;9.53;;;3.97;;
75823;SDS011;64457;51.976;9.834;2023-08-01T14:12:10;8.10;;;3.33;;
75823;SDS011;64457;51.976;9.834;2023-08-01T14:14:38;7.27;;;2.60;;
75823;SDS011;64457;51.976;9.834;2023-08-01T14:17:07;6.03;;;2.63;;
75823;SDS011;64457;51.976;9.834;2023-08-01T14:19:37;7.93;;;2.90;;
75823;SDS011;64457;51.976;9.834;2023-08-01T14:22:07;9.43;;;3.37;;
75823;SDS011;64457;51.976;9.834;2023-08-01T14:24:35;14.23;;;3.40;;
75823;SDS011;64457;51.976;9.834;2023-08-01T14:27:02;9.60;;;2.90;;
75823;SDS011;64457;51.976;9.834;2023-08-01T14:29:31;7.50;;;3.03;;
75823;SDS011;64457;51.976;9.834;2023-08-01T14:31:59;7.90;;;2.70;;
75823;SDS011;64457;51.976;9.834;2023-08-01T14:34:26;7.80;;;2.70;;
75823;SDS011;64457;51.976;9.834;2023-08-01T14:36:55;6.83;;;2.53;;
75823;SDS011;64457;51.976;9.834;2023-08-01T14:39:23;7.93;;;2.60;;
75823;SDS011;64457;51.976;9.834;2023-08-01T14:41:51;8.83;;;2.33;;
75823;SDS011;64457;51.976;9.834;2023-08-01T14:44:19;7.70;;;2.57;;
75823;SDS011;64457;51.976;9.834;2023-08-01T14:46:46;8.63;;;2.53;;
75823;SDS011;64457;51.976;9.834;2023-08-01T14:49:19;7.57;;;2.23;;
75823;SDS011;64457;51.976;9.834;2023-08-01T14:51:48;6.77;;;2.43;;
75823;SDS011;64457;51.976;9.834;2023-08-01T14:54:17;6.10;;;2.30;;